Urb Rio Piedras Hts, Puerto Rico
Current Conditions -  °F | °C
As of 11:56 AM on Wednesday 28 Jan 2015 (Local Time) from TJSJ Reporting Station
Scattered Clouds Scattered Clouds  
Wind Chill: 82°   Ceiling: Unl
Heat Index: 86°   Visibility: 10mi
Dew Point: 71°   Wind: 6mph
Humidity: 69%   Direction: 350°N
Pressure: 30.02"   Gusts: NA
Location:  18.3754°N, 66.0577°W
Report Text: TJSJ 281556Z 35005KT 10SM SCT045 28/22 A3002 RMK AO2 SLP163 T02780217
Loading
Personal Weather Stations






























Interactive Weather Map New forecast layout! Learn more

10-Day Weather Forecast

Advertisements
Track Severe Weather on mobile